sensor_id;sensor_type;location;lat;lon;timestamp;temperature;humidity
20957;DHT22;10637;47.970;7.830;2023-04-26T00:00:11;8.20;99.90
20957;DHT22;10637;47.970;7.830;2023-04-26T00:05:14;7.90;99.90
20957;DHT22;10637;47.970;7.830;2023-04-26T00:10:17;7.70;99.90
20957;DHT22;10637;47.970;7.830;2023-04-26T00:15:19;7.70;99.90
20957;DHT22;10637;47.970;7.830;2023-04-26T00:20:21;7.60;99.90
20957;DHT22;10637;47.970;7.830;2023-04-26T00:25:22;7.30;99.90
20957;DHT22;10637;47.970;7.830;2023-04-26T00:30:24;7.10;99.90
20957;DHT22;10637;47.970;7.830;2023-04-26T00:35:26;7.20;99.90
20957;DHT22;10637;47.970;7.830;2023-04-26T00:40:29;7.30;99.90
20957;DHT22;10637;47.970;7.830;2023-04-26T00:45:31;7.40;99.90
20957;DHT22;10637;47.970;7.830;2023-04-26T00:50:33;7.10;99.90
20957;DHT22;10637;47.970;7.830;2023-04-26T00:55:35;7.00;99.90
20957;DHT22;10637;47.970;7.830;2023-04-26T01:00:37;6.60;99.90
20957;DHT22;10637;47.970;7.830;2023-04-26T01:05:39;6.70;99.90
20957;DHT22;10637;47.970;7.830;2023-04-26T01:10:41;6.70;99.90
20957;DHT22;10637;47.970;7.830;2023-04-26T01:15:45;6.80;99.90
20957;DHT22;10637;47.970;7.830;2023-04-26T01:20:46;7.00;99.90
20957;DHT22;10637;47.970;7.830;2023-04-26T01:25:48;6.60;99.90
20957;DHT22;10637;47.970;7.830;2023-04-26T01:30:50;6.70;99.90
20957;DHT22;10637;47.970;7.830;2023-04-26T01:35:52;6.50;99.90
20957;DHT22;10637;47.970;7.830;2023-04-26T01:40:54;6.50;99.90
20957;DHT22;10637;47.970;7.830;2023-04-26T01:45:56;6.70;99.90
20957;DHT22;10637;47.970;7.830;2023-04-26T01:50:58;6.90;99.90
20957;DHT22;10637;47.970;7.830;2023-04-26T01:56:00;7.00;99.90
20957;DHT22;10637;47.970;7.830;2023-04-26T02:01:07;7.00;99.90
20957;DHT22;10637;47.970;7.830;2023-04-26T02:06:09;7.00;99.90
20957;DHT22;10637;47.970;7.830;2023-04-26T02:11:11;7.10;99.90
20957;DHT22;10637;47.970;7.830;2023-04-26T02:16:13;7.00;99.90
20957;DHT22;10637;47.970;7.830;2023-04-26T02:21:17;7.10;99.90
20957;DHT22;10637;47.970;7.830;2023-04-26T02:26:19;7.00;99.90
20957;DHT22;10637;47.970;7.830;2023-04-26T02:31:20;7.00;99.90
20957;DHT22;10637;47.970;7.830;2023-04-26T02:36:23;6.80;99.90
20957;DHT22;10637;47.970;7.830;2023-04-26T02:41:26;6.70;99.90
20957;DHT22;10637;47.970;7.830;2023-04-26T02:46:28;6.70;99.90
20957;DHT22;10637;47.970;7.830;2023-04-26T02:51:30;6.90;99.90
20957;DHT22;10637;47.970;7.830;2023-04-26T02:56:33;6.70;99.90
20957;DHT22;10637;47.970;7.830;2023-04-26T03:01:34;6.80;99.90
20957;DHT22;10637;47.970;7.830;2023-04-26T03:06:36;6.90;99.90
20957;DHT22;10637;47.970;7.830;2023-04-26T03:11:38;7.00;99.90
20957;DHT22;10637;47.970;7.830;2023-04-26T03:16:40;6.70;99.90
20957;DHT22;10637;47.970;7.830;2023-04-26T03:21:43;6.80;99.90
20957;DHT22;10637;47.970;7.830;2023-04-26T03:26:45;6.60;99.90
20957;DHT22;10637;47.970;7.830;2023-04-26T03:31:46;6.50;99.90
20957;DHT22;10637;47.970;7.830;2023-04-26T03:36:48;6.50;99.90
20957;DHT22;10637;47.970;7.830;2023-04-26T03:41:50;6.30;99.90
20957;DHT22;10637;47.970;7.830;2023-04-26T03:46:52;6.20;99.90
20957;DHT22;10637;47.970;7.830;2023-04-26T03:51:54;6.20;99.90
20957;DHT22;10637;47.970;7.830;2023-04-26T03:56:56;6.30;99.90
20957;DHT22;10637;47.970;7.830;2023-04-26T04:01:58;6.10;99.90
20957;DHT22;10637;47.970;7.830;2023-04-26T04:07:00;6.10;99.90
20957;DHT22;10637;47.970;7.830;2023-04-26T04:12:02;6.10;99.90
20957;DHT22;10637;47.970;7.830;2023-04-26T04:17:03;5.80;99.90
20957;DHT22;10637;47.970;7.830;2023-04-26T04:22:05;5.60;99.90
20957;DHT22;10637;47.970;7.830;2023-04-26T04:27:07;5.60;99.90
20957;DHT22;10637;47.970;7.830;2023-04-26T04:32:09;5.60;99.90
20957;DHT22;10637;47.970;7.830;2023-04-26T04:37:11;5.60;99.90
20957;DHT22;10637;47.970;7.830;2023-04-26T04:42:14;5.60;99.90
20957;DHT22;10637;47.970;7.830;2023-04-26T04:47:16;5.70;99.90
20957;DHT22;10637;47.970;7.830;2023-04-26T04:52:18;5.40;99.90
20957;DHT22;10637;47.970;7.830;2023-04-26T04:57:22;5.50;99.90
20957;DHT22;10637;47.970;7.830;2023-04-26T05:02:24;5.40;99.90
20957;DHT22;10637;47.970;7.830;2023-04-26T05:07:26;5.30;99.90
20957;DHT22;10637;47.970;7.830;2023-04-26T05:12:29;5.50;99.90
20957;DHT22;10637;47.970;7.830;2023-04-26T05:17:32;5.50;99.90
20957;DHT22;10637;47.970;7.830;2023-04-26T05:22:34;5.60;99.90
20957;DHT22;10637;47.970;7.830;2023-04-26T05:27:37;5.80;99.90
20957;DHT22;10637;47.970;7.830;2023-04-26T05:32:39;5.90;99.90
20957;DHT22;10637;47.970;7.830;2023-04-26T05:37:42;5.90;99.90
20957;DHT22;10637;47.970;7.830;2023-04-26T05:42:43;6.00;99.90
20957;DHT22;10637;47.970;7.830;2023-04-26T05:47:45;6.20;99.90
20957;DHT22;10637;47.970;7.830;2023-04-26T05:52:50;6.50;99.90
20957;DHT22;10637;47.970;7.830;2023-04-26T05:57:52;6.70;99.90
20957;DHT22;10637;47.970;7.830;2023-04-26T06:02:54;6.90;99.90
20957;DHT22;10637;47.970;7.830;2023-04-26T06:07:56;7.20;99.90
20957;DHT22;10637;47.970;7.830;2023-04-26T06:12:58;7.50;99.90
20957;DHT22;10637;47.970;7.830;2023-04-26T06:18:00;7.80;99.90
20957;DHT22;10637;47.970;7.830;2023-04-26T06:23:02;8.10;99.90
20957;DHT22;10637;47.970;7.830;2023-04-26T06:28:04;8.20;99.90
20957;DHT22;10637;47.970;7.830;2023-04-26T06:33:05;8.40;99.90
20957;DHT22;10637;47.970;7.830;2023-04-26T06:38:07;8.60;99.90
20957;DHT22;10637;47.970;7.830;2023-04-26T06:43:09;8.90;99.90
20957;DHT22;10637;47.970;7.830;2023-04-26T06:48:12;9.10;99.90
20957;DHT22;10637;47.970;7.830;2023-04-26T06:53:13;9.20;99.90
20957;DHT22;10637;47.970;7.830;2023-04-26T06:58:15;9.20;99.90
20957;DHT22;10637;47.970;7.830;2023-04-26T07:03:17;9.30;99.90
20957;DHT22;10637;47.970;7.830;2023-04-26T07:08:19;9.60;99.90
20957;DHT22;10637;47.970;7.830;2023-04-26T07:13:21;10.10;99.90
20957;DHT22;10637;47.970;7.830;2023-04-26T07:18:23;10.30;99.90
20957;DHT22;10637;47.970;7.830;2023-04-26T07:23:24;10.60;99.90
20957;DHT22;10637;47.970;7.830;2023-04-26T07:28:26;10.80;99.90
20957;DHT22;10637;47.970;7.830;2023-04-26T07:33:28;11.00;99.90
20957;DHT22;10637;47.970;7.830;2023-04-26T07:38:30;11.10;99.90
20957;DHT22;10637;47.970;7.830;2023-04-26T07:43:32;11.10;99.90
20957;DHT22;10637;47.970;7.830;2023-04-26T07:48:33;11.30;99.90
20957;DHT22;10637;47.970;7.830;2023-04-26T07:53:36;11.10;99.90
20957;DHT22;10637;47.970;7.830;2023-04-26T07:58:38;11.40;99.90
20957;DHT22;10637;47.970;7.830;2023-04-26T08:03:41;11.50;99.90
20957;DHT22;10637;47.970;7.830;2023-04-26T08:08:43;11.60;99.90
20957;DHT22;10637;47.970;7.830;2023-04-26T08:13:49;12.10;99.90
20957;DHT22;10637;47.970;7.830;2023-04-26T08:18:51;12.70;99.90
20957;DHT22;10637;47.970;7.830;2023-04-26T08:23:53;13.30;99.90
20957;DHT22;10637;47.970;7.830;2023-04-26T08:28:55;13.90;99.90
20957;DHT22;10637;47.970;7.830;2023-04-26T08:33:58;14.10;99.90
20957;DHT22;10637;47.970;7.830;2023-04-26T08:38:59;14.40;99.90
20957;DHT22;10637;47.970;7.830;2023-04-26T08:44:03;14.80;99.90
20957;DHT22;10637;47.970;7.830;2023-04-26T08:49:30;13.90;99.90
20957;DHT22;10637;47.970;7.830;2023-04-26T08:54:36;13.90;99.90
20957;DHT22;10637;47.970;7.830;2023-04-26T08:59:38;14.10;99.90
20957;DHT22;10637;47.970;7.830;2023-04-26T09:04:40;14.10;99.90
20957;DHT22;10637;47.970;7.830;2023-04-26T09:09:44;14.10;99.90
20957;DHT22;10637;47.970;7.830;2023-04-26T09:14:47;14.10;99.90
20957;DHT22;10637;47.970;7.830;2023-04-26T09:19:49;14.00;99.90
20957;DHT22;10637;47.970;7.830;2023-04-26T09:24:50;13.90;99.90
20957;DHT22;10637;47.970;7.830;2023-04-26T09:29:57;14.00;99.90
20957;DHT22;10637;47.970;7.830;2023-04-26T09:35:00;14.00;99.90
20957;DHT22;10637;47.970;7.830;2023-04-26T09:40:08;14.30;99.90
20957;DHT22;10637;47.970;7.830;2023-04-26T09:45:18;14.60;99.90
20957;DHT22;10637;47.970;7.830;2023-04-26T09:50:30;14.90;99.90
20957;DHT22;10637;47.970;7.830;2023-04-26T09:55:32;15.60;99.90
20957;DHT22;10637;47.970;7.830;2023-04-26T10:00:37;16.10;99.90
20957;DHT22;10637;47.970;7.830;2023-04-26T10:05:40;15.90;99.90
20957;DHT22;10637;47.970;7.830;2023-04-26T10:10:42;17.00;99.90
20957;DHT22;10637;47.970;7.830;2023-04-26T10:15:45;17.20;99.90
20957;DHT22;10637;47.970;7.830;2023-04-26T10:20:51;16.40;99.90
20957;DHT22;10637;47.970;7.830;2023-04-26T10:25:54;16.40;99.90
20957;DHT22;10637;47.970;7.830;2023-04-26T10:30:58;16.50;99.90
20957;DHT22;10637;47.970;7.830;2023-04-26T10:36:13;17.30;99.90
20957;DHT22;10637;47.970;7.830;2023-04-26T10:41:33;17.40;99.90
20957;DHT22;10637;47.970;7.830;2023-04-26T10:46:39;16.30;99.90
20957;DHT22;10637;47.970;7.830;2023-04-26T10:52:07;16.70;99.90
20957;DHT22;10637;47.970;7.830;2023-04-26T10:57:11;16.60;99.90
20957;DHT22;10637;47.970;7.830;2023-04-26T11:02:12;16.40;99.90
20957;DHT22;10637;47.970;7.830;2023-04-26T11:07:14;16.60;99.90
20957;DHT22;10637;47.970;7.830;2023-04-26T11:12:16;16.70;99.90
20957;DHT22;10637;47.970;7.830;2023-04-26T11:17:18;17.40;99.90
20957;DHT22;10637;47.970;7.830;2023-04-26T11:22:21;16.90;99.80
20957;DHT22;10637;47.970;7.830;2023-04-26T11:27:26;16.50;99.90
20957;DHT22;10637;47.970;7.830;2023-04-26T11:32:28;16.60;97.90
20957;DHT22;10637;47.970;7.830;2023-04-26T11:37:30;16.10;99.90
20957;DHT22;10637;47.970;7.830;2023-04-26T11:42:32;16.30;99.80
20957;DHT22;10637;47.970;7.830;2023-04-26T11:47:34;16.80;98.60
20957;DHT22;10637;47.970;7.830;2023-04-26T11:52:37;16.80;99.00
20957;DHT22;10637;47.970;7.830;2023-04-26T11:57:39;17.40;97.20
20957;DHT22;10637;47.970;7.830;2023-04-26T12:02:47;17.70;97.20
20957;DHT22;10637;47.970;7.830;2023-04-26T12:07:55;17.80;95.70
20957;DHT22;10637;47.970;7.830;2023-04-26T12:12:58;19.00;93.60
20957;DHT22;10637;47.970;7.830;2023-04-26T12:18:09;18.80;94.10
20957;DHT22;10637;47.970;7.830;2023-04-26T12:23:14;19.50;93.40
20957;DHT22;10637;47.970;7.830;2023-04-26T12:28:16;19.50;91.90
20957;DHT22;10637;47.970;7.830;2023-04-26T12:33:18;19.40;92.50
20957;DHT22;10637;47.970;7.830;2023-04-26T12:38:23;18.00;93.70
20957;DHT22;10637;47.970;7.830;2023-04-26T12:43:25;17.80;94.00
20957;DHT22;10637;47.970;7.830;2023-04-26T12:48:27;16.70;93.60
20957;DHT22;10637;47.970;7.830;2023-04-26T12:53:29;16.40;93.20
20957;DHT22;10637;47.970;7.830;2023-04-26T12:58:31;17.30;94.30
20957;DHT22;10637;47.970;7.830;2023-04-26T13:03:33;18.10;92.60
20957;DHT22;10637;47.970;7.830;2023-04-26T13:08:35;17.60;93.60
20957;DHT22;10637;47.970;7.830;2023-04-26T13:13:37;18.70;94.30
20957;DHT22;10637;47.970;7.830;2023-04-26T13:18:44;18.70;90.10
20957;DHT22;10637;47.970;7.830;2023-04-26T13:23:47;19.00;88.80
20957;DHT22;10637;47.970;7.830;2023-04-26T13:28:48;19.00;90.00
20957;DHT22;10637;47.970;7.830;2023-04-26T13:33:50;18.90;90.20
20957;DHT22;10637;47.970;7.830;2023-04-26T13:38:52;18.10;89.50
20957;DHT22;10637;47.970;7.830;2023-04-26T13:43:54;18.40;90.80
20957;DHT22;10637;47.970;7.830;2023-04-26T13:48:56;18.60;87.60
20957;DHT22;10637;47.970;7.830;2023-04-26T13:53:58;18.80;90.10
20957;DHT22;10637;47.970;7.830;2023-04-26T13:59:00;19.10;87.20
20957;DHT22;10637;47.970;7.830;2023-04-26T14:04:04;19.40;86.30
20957;DHT22;10637;47.970;7.830;2023-04-26T14:09:06;18.90;84.70
20957;DHT22;10637;47.970;7.830;2023-04-26T14:14:09;19.20;90.20
20957;DHT22;10637;47.970;7.830;2023-04-26T14:19:11;19.20;85.40
20957;DHT22;10637;47.970;7.830;2023-04-26T14:24:15;19.30;85.70
20957;DHT22;10637;47.970;7.830;2023-04-26T14:29:17;19.00;85.70
20957;DHT22;10637;47.970;7.830;2023-04-26T14:34:19;18.10;88.40
20957;DHT22;10637;47.970;7.830;2023-04-26T14:39:22;18.50;90.00
20957;DHT22;10637;47.970;7.830;2023-04-26T14:44:25;18.10;89.00
20957;DHT22;10637;47.970;7.830;2023-04-26T14:49:27;18.20;88.80
20957;DHT22;10637;47.970;7.830;2023-04-26T14:54:29;18.00;89.90
20957;DHT22;10637;47.970;7.830;2023-04-26T14:59:32;18.50;90.00
20957;DHT22;10637;47.970;7.830;2023-04-26T15:04:34;18.50;89.30
20957;DHT22;10637;47.970;7.830;2023-04-26T15:09:38;18.50;88.50
20957;DHT22;10637;47.970;7.830;2023-04-26T15:14:40;18.80;87.20
20957;DHT22;10637;47.970;7.830;2023-04-26T15:19:41;18.20;86.40
20957;DHT22;10637;47.970;7.830;2023-04-26T15:24:43;18.10;84.30
20957;DHT22;10637;47.970;7.830;2023-04-26T15:29:45;17.40;86.30
20957;DHT22;10637;47.970;7.830;2023-04-26T15:34:47;17.40;88.40
20957;DHT22;10637;47.970;7.830;2023-04-26T15:39:49;18.10;88.90
20957;DHT22;10637;47.970;7.830;2023-04-26T15:44:51;18.20;85.00
20957;DHT22;10637;47.970;7.830;2023-04-26T15:49:52;17.50;89.00
20957;DHT22;10637;47.970;7.830;2023-04-26T15:54:55;17.50;87.30
20957;DHT22;10637;47.970;7.830;2023-04-26T15:59:57;17.10;89.30
20957;DHT22;10637;47.970;7.830;2023-04-26T16:04:59;16.80;88.10
20957;DHT22;10637;47.970;7.830;2023-04-26T16:10:01;16.40;90.80
20957;DHT22;10637;47.970;7.830;2023-04-26T16:15:08;16.50;91.60
20957;DHT22;10637;47.970;7.830;2023-04-26T16:20:10;16.30;92.30
20957;DHT22;10637;47.970;7.830;2023-04-26T16:25:12;16.00;92.50
20957;DHT22;10637;47.970;7.830;2023-04-26T16:30:14;15.50;93.10
20957;DHT22;10637;47.970;7.830;2023-04-26T16:35:15;15.80;93.20
20957;DHT22;10637;47.970;7.830;2023-04-26T16:40:18;15.70;92.70
20957;DHT22;10637;47.970;7.830;2023-04-26T16:45:19;16.00;93.10
20957;DHT22;10637;47.970;7.830;2023-04-26T16:50:21;16.20;92.70
20957;DHT22;10637;47.970;7.830;2023-04-26T16:55:23;16.20;92.70
20957;DHT22;10637;47.970;7.830;2023-04-26T17:00:25;16.50;93.00
20957;DHT22;10637;47.970;7.830;2023-04-26T17:05:27;16.60;92.30
20957;DHT22;10637;47.970;7.830;2023-04-26T17:10:31;16.40;92.60
20957;DHT22;10637;47.970;7.830;2023-04-26T17:15:34;16.30;93.50
20957;DHT22;10637;47.970;7.830;2023-04-26T17:20:36;16.60;93.30
20957;DHT22;10637;47.970;7.830;2023-04-26T17:25:38;16.70;92.90
20957;DHT22;10637;47.970;7.830;2023-04-26T17:30:40;16.40;93.50
20957;DHT22;10637;47.970;7.830;2023-04-26T17:35:42;16.20;94.40
20957;DHT22;10637;47.970;7.830;2023-04-26T17:40:44;16.20;93.90
20957;DHT22;10637;47.970;7.830;2023-04-26T17:45:46;16.50;94.60
20957;DHT22;10637;47.970;7.830;2023-04-26T17:50:47;16.70;94.70
20957;DHT22;10637;47.970;7.830;2023-04-26T17:55:50;16.60;94.50
20957;DHT22;10637;47.970;7.830;2023-04-26T18:00:53;16.60;93.70
20957;DHT22;10637;47.970;7.830;2023-04-26T18:05:55;16.50;94.40
20957;DHT22;10637;47.970;7.830;2023-04-26T18:10:57;16.20;95.30
20957;DHT22;10637;47.970;7.830;2023-04-26T18:15:59;16.00;96.10
20957;DHT22;10637;47.970;7.830;2023-04-26T18:21:01;15.80;96.00
20957;DHT22;10637;47.970;7.830;2023-04-26T18:26:03;15.40;96.40
20957;DHT22;10637;47.970;7.830;2023-04-26T18:31:05;15.20;96.70
20957;DHT22;10637;47.970;7.830;2023-04-26T18:36:08;14.80;97.30
20957;DHT22;10637;47.970;7.830;2023-04-26T18:41:10;14.30;98.80
20957;DHT22;10637;47.970;7.830;2023-04-26T18:46:12;14.20;99.60
20957;DHT22;10637;47.970;7.830;2023-04-26T18:51:14;14.00;99.90
20957;DHT22;10637;47.970;7.830;2023-04-26T18:56:16;13.90;99.90
20957;DHT22;10637;47.970;7.830;2023-04-26T19:01:18;13.80;99.90
20957;DHT22;10637;47.970;7.830;2023-04-26T19:06:20;13.40;99.90
20957;DHT22;10637;47.970;7.830;2023-04-26T19:11:22;13.00;99.90
20957;DHT22;10637;47.970;7.830;2023-04-26T19:16:23;13.10;99.90
20957;DHT22;10637;47.970;7.830;2023-04-26T19:21:25;13.20;99.90
20957;DHT22;10637;47.970;7.830;2023-04-26T19:26:27;12.90;99.90
20957;DHT22;10637;47.970;7.830;2023-04-26T19:31:29;12.60;99.90
20957;DHT22;10637;47.970;7.830;2023-04-26T19:36:30;12.60;99.90
20957;DHT22;10637;47.970;7.830;2023-04-26T19:41:35;12.60;99.90
20957;DHT22;10637;47.970;7.830;2023-04-26T19:46:36;12.40;99.90
20957;DHT22;10637;47.970;7.830;2023-04-26T19:51:38;12.40;99.90
20957;DHT22;10637;47.970;7.830;2023-04-26T19:56:40;12.40;99.90
20957;DHT22;10637;47.970;7.830;2023-04-26T20:01:42;12.50;99.90
20957;DHT22;10637;47.970;7.830;2023-04-26T20:06:44;12.30;99.90
20957;DHT22;10637;47.970;7.830;2023-04-26T20:11:45;12.10;99.90
20957;DHT22;10637;47.970;7.830;2023-04-26T20:16:48;11.90;99.90
20957;DHT22;10637;47.970;7.830;2023-04-26T20:21:49;11.90;99.90
20957;DHT22;10637;47.970;7.830;2023-04-26T20:26:51;12.00;99.90
20957;DHT22;10637;47.970;7.830;2023-04-26T20:31:53;12.00;99.90
20957;DHT22;10637;47.970;7.830;2023-04-26T20:36:55;11.90;99.90
20957;DHT22;10637;47.970;7.830;2023-04-26T20:41:56;11.60;99.90
20957;DHT22;10637;47.970;7.830;2023-04-26T20:46:58;11.60;99.90
20957;DHT22;10637;47.970;7.830;2023-04-26T20:52:00;11.70;99.90
20957;DHT22;10637;47.970;7.830;2023-04-26T20:57:02;11.70;99.90
20957;DHT22;10637;47.970;7.830;2023-04-26T21:02:04;11.60;99.90
20957;DHT22;10637;47.970;7.830;2023-04-26T21:07:06;11.50;99.90
20957;DHT22;10637;47.970;7.830;2023-04-26T21:12:08;11.60;99.90
20957;DHT22;10637;47.970;7.830;2023-04-26T21:17:10;11.60;99.90
20957;DHT22;10637;47.970;7.830;2023-04-26T21:22:11;11.60;99.90
20957;DHT22;10637;47.970;7.830;2023-04-26T21:27:13;11.60;99.90
20957;DHT22;10637;47.970;7.830;2023-04-26T21:32:15;11.40;99.90
20957;DHT22;10637;47.970;7.830;2023-04-26T21:37:17;11.50;99.90
20957;DHT22;10637;47.970;7.830;2023-04-26T21:42:18;11.50;99.90
20957;DHT22;10637;47.970;7.830;2023-04-26T21:47:20;11.50;99.90
20957;DHT22;10637;47.970;7.830;2023-04-26T21:52:22;11.50;99.90
20957;DHT22;10637;47.970;7.830;2023-04-26T21:57:24;11.60;99.90
20957;DHT22;10637;47.970;7.830;2023-04-26T22:02:26;11.40;99.90
20957;DHT22;10637;47.970;7.830;2023-04-26T22:07:28;11.40;99.90
20957;DHT22;10637;47.970;7.830;2023-04-26T22:12:30;11.40;99.90
20957;DHT22;10637;47.970;7.830;2023-04-26T22:17:31;11.50;99.90
20957;DHT22;10637;47.970;7.830;2023-04-26T22:22:34;11.50;99.90
20957;DHT22;10637;47.970;7.830;2023-04-26T22:27:35;11.60;99.90
20957;DHT22;10637;47.970;7.830;2023-04-26T22:32:37;11.60;99.90
20957;DHT22;10637;47.970;7.830;2023-04-26T22:37:39;11.60;99.90
20957;DHT22;10637;47.970;7.830;2023-04-26T22:42:41;11.60;99.90
20957;DHT22;10637;47.970;7.830;2023-04-26T22:47:43;11.50;99.90
20957;DHT22;10637;47.970;7.830;2023-04-26T22:52:45;11.40;99.90
20957;DHT22;10637;47.970;7.830;2023-04-26T22:57:48;11.40;99.90
20957;DHT22;10637;47.970;7.830;2023-04-26T23:02:50;11.50;99.90
20957;DHT22;10637;47.970;7.830;2023-04-26T23:07:52;11.30;99.90
20957;DHT22;10637;47.970;7.830;2023-04-26T23:12:53;11.40;99.90
20957;DHT22;10637;47.970;7.830;2023-04-26T23:17:55;11.30;99.90
20957;DHT22;10637;47.970;7.830;2023-04-26T23:22:57;11.40;99.90
20957;DHT22;10637;47.970;7.830;2023-04-26T23:27:59;11.50;99.90
20957;DHT22;10637;47.970;7.830;2023-04-26T23:33:01;11.60;99.90
20957;DHT22;10637;47.970;7.830;2023-04-26T23:38:03;11.50;99.90
20957;DHT22;10637;47.970;7.830;2023-04-26T23:43:05;11.50;99.90
20957;DHT22;10637;47.970;7.830;2023-04-26T23:48:06;11.50;99.90
20957;DHT22;10637;47.970;7.830;2023-04-26T23:53:09;11.30;99.90
20957;DHT22;10637;47.970;7.830;2023-04-26T23:58:11;11.20;99.90
